sensor_id;sensor_type;location;lat;lon;timestamp;P1;durP1;ratioP1;P2;durP2;ratioP2
2386;SDS011;49473;50.772;8.768;2022-12-07T00:01:20;20.43;;;13.90;;
2386;SDS011;49473;50.772;8.768;2022-12-07T00:03:51;17.53;;;12.50;;
2386;SDS011;49473;50.772;8.768;2022-12-07T00:06:18;16.37;;;12.63;;
2386;SDS011;49473;50.772;8.768;2022-12-07T00:08:46;14.70;;;11.73;;
2386;SDS011;49473;50.772;8.768;2022-12-07T00:11:14;15.80;;;13.27;;
2386;SDS011;49473;50.772;8.768;2022-12-07T00:13:42;19.27;;;13.10;;
2386;SDS011;49473;50.772;8.768;2022-12-07T00:16:10;14.67;;;11.90;;
2386;SDS011;49473;50.772;8.768;2022-12-07T00:18:38;16.40;;;13.17;;
2386;SDS011;49473;50.772;8.768;2022-12-07T00:21:09;16.23;;;13.17;;
2386;SDS011;49473;50.772;8.768;2022-12-07T00:23:37;17.13;;;13.77;;
2386;SDS011;49473;50.772;8.768;2022-12-07T00:26:04;15.00;;;13.40;;
2386;SDS011;49473;50.772;8.768;2022-12-07T00:28:32;16.60;;;14.13;;
2386;SDS011;49473;50.772;8.768;2022-12-07T00:31:00;16.77;;;12.90;;
2386;SDS011;49473;50.772;8.768;2022-12-07T00:33:28;17.40;;;13.33;;
2386;SDS011;49473;50.772;8.768;2022-12-07T00:35:55;16.87;;;13.70;;
2386;SDS011;49473;50.772;8.768;2022-12-07T00:38:24;15.93;;;12.90;;
2386;SDS011;49473;50.772;8.768;2022-12-07T00:40:56;19.40;;;14.27;;
2386;SDS011;49473;50.772;8.768;2022-12-07T00:43:23;16.70;;;13.07;;
2386;SDS011;49473;50.772;8.768;2022-12-07T00:45:50;15.83;;;12.90;;
2386;SDS011;49473;50.772;8.768;2022-12-07T00:48:17;15.70;;;12.77;;
2386;SDS011;49473;50.772;8.768;2022-12-07T00:50:44;15.87;;;12.70;;
2386;SDS011;49473;50.772;8.768;2022-12-07T00:53:10;15.67;;;12.03;;
2386;SDS011;49473;50.772;8.768;2022-12-07T00:55:39;13.83;;;12.30;;
2386;SDS011;49473;50.772;8.768;2022-12-07T00:58:06;16.47;;;13.13;;
2386;SDS011;49473;50.772;8.768;2022-12-07T01:00:33;16.83;;;13.80;;
2386;SDS011;49473;50.772;8.768;2022-12-07T01:03:02;18.90;;;13.77;;
2386;SDS011;49473;50.772;8.768;2022-12-07T01:05:29;18.03;;;13.43;;
2386;SDS011;49473;50.772;8.768;2022-12-07T01:07:56;16.57;;;13.60;;
2386;SDS011;49473;50.772;8.768;2022-12-07T01:10:23;14.67;;;13.10;;
2386;SDS011;49473;50.772;8.768;2022-12-07T01:12:51;15.63;;;12.67;;
2386;SDS011;49473;50.772;8.768;2022-12-07T01:15:17;15.27;;;12.80;;
2386;SDS011;49473;50.772;8.768;2022-12-07T01:17:44;15.97;;;12.93;;
2386;SDS011;49473;50.772;8.768;2022-12-07T01:20:12;16.60;;;13.20;;
2386;SDS011;49473;50.772;8.768;2022-12-07T01:22:41;15.97;;;12.77;;
2386;SDS011;49473;50.772;8.768;2022-12-07T01:25:08;15.40;;;12.57;;
2386;SDS011;49473;50.772;8.768;2022-12-07T01:27:36;15.17;;;11.60;;
2386;SDS011;49473;50.772;8.768;2022-12-07T01:30:06;14.50;;;12.40;;
2386;SDS011;49473;50.772;8.768;2022-12-07T01:32:33;15.53;;;13.20;;
2386;SDS011;49473;50.772;8.768;2022-12-07T01:35:00;16.17;;;13.33;;
2386;SDS011;49473;50.772;8.768;2022-12-07T01:37:26;15.50;;;13.00;;
2386;SDS011;49473;50.772;8.768;2022-12-07T01:39:53;16.53;;;12.50;;
2386;SDS011;49473;50.772;8.768;2022-12-07T01:42:20;15.23;;;12.07;;
2386;SDS011;49473;50.772;8.768;2022-12-07T01:48:01;12.83;;;10.77;;
2386;SDS011;49473;50.772;8.768;2022-12-07T01:50:28;15.70;;;12.70;;
2386;SDS011;49473;50.772;8.768;2022-12-07T01:52:57;16.90;;;13.23;;
2386;SDS011;49473;50.772;8.768;2022-12-07T01:55:27;16.00;;;12.93;;
2386;SDS011;49473;50.772;8.768;2022-12-07T01:57:55;16.90;;;13.53;;
2386;SDS011;49473;50.772;8.768;2022-12-07T02:00:22;14.43;;;12.27;;
2386;SDS011;49473;50.772;8.768;2022-12-07T02:02:51;15.90;;;12.80;;
2386;SDS011;49473;50.772;8.768;2022-12-07T02:05:23;17.97;;;13.00;;
2386;SDS011;49473;50.772;8.768;2022-12-07T02:07:52;13.53;;;12.17;;
2386;SDS011;49473;50.772;8.768;2022-12-07T02:10:24;12.60;;;11.10;;
2386;SDS011;49473;50.772;8.768;2022-12-07T02:12:54;11.53;;;10.30;;
2386;SDS011;49473;50.772;8.768;2022-12-07T02:15:25;13.17;;;11.70;;
2386;SDS011;49473;50.772;8.768;2022-12-07T02:17:58;11.57;;;10.37;;
2386;SDS011;49473;50.772;8.768;2022-12-07T02:20:35;13.27;;;10.90;;
2386;SDS011;49473;50.772;8.768;2022-12-07T02:23:13;14.80;;;12.07;;
2386;SDS011;49473;50.772;8.768;2022-12-07T02:26:15;15.63;;;11.73;;
2386;SDS011;49473;50.772;8.768;2022-12-07T02:29:14;12.87;;;11.57;;
2386;SDS011;49473;50.772;8.768;2022-12-07T02:31:50;14.57;;;11.40;;
2386;SDS011;49473;50.772;8.768;2022-12-07T02:34:28;12.20;;;10.57;;
2386;SDS011;49473;50.772;8.768;2022-12-07T02:37:10;12.67;;;11.27;;
2386;SDS011;49473;50.772;8.768;2022-12-07T02:39:46;14.37;;;11.50;;
2386;SDS011;49473;50.772;8.768;2022-12-07T02:42:21;12.30;;;11.00;;
2386;SDS011;49473;50.772;8.768;2022-12-07T02:44:52;16.03;;;11.87;;
2386;SDS011;49473;50.772;8.768;2022-12-07T02:47:19;12.90;;;11.60;;
2386;SDS011;49473;50.772;8.768;2022-12-07T02:49:50;14.27;;;11.90;;
2386;SDS011;49473;50.772;8.768;2022-12-07T02:52:18;13.30;;;11.60;;
2386;SDS011;49473;50.772;8.768;2022-12-07T02:54:44;14.40;;;12.13;;
2386;SDS011;49473;50.772;8.768;2022-12-07T02:57:19;13.70;;;12.30;;
2386;SDS011;49473;50.772;8.768;2022-12-07T03:00:04;15.40;;;12.57;;
2386;SDS011;49473;50.772;8.768;2022-12-07T03:02:36;14.00;;;11.50;;
2386;SDS011;49473;50.772;8.768;2022-12-07T03:05:13;17.07;;;12.20;;
2386;SDS011;49473;50.772;8.768;2022-12-07T03:07:54;11.83;;;10.70;;
2386;SDS011;49473;50.772;8.768;2022-12-07T03:10:27;13.40;;;11.97;;
2386;SDS011;49473;50.772;8.768;2022-12-07T03:13:05;13.17;;;11.77;;
2386;SDS011;49473;50.772;8.768;2022-12-07T03:15:38;13.40;;;11.03;;
2386;SDS011;49473;50.772;8.768;2022-12-07T03:18:09;13.47;;;11.17;;
2386;SDS011;49473;50.772;8.768;2022-12-07T03:20:40;14.20;;;12.00;;
2386;SDS011;49473;50.772;8.768;2022-12-07T03:23:10;12.97;;;10.90;;
2386;SDS011;49473;50.772;8.768;2022-12-07T03:25:39;14.20;;;11.97;;
2386;SDS011;49473;50.772;8.768;2022-12-07T03:28:07;12.87;;;11.67;;
2386;SDS011;49473;50.772;8.768;2022-12-07T03:30:39;11.90;;;10.70;;
2386;SDS011;49473;50.772;8.768;2022-12-07T03:33:11;10.67;;;9.50;;
2386;SDS011;49473;50.772;8.768;2022-12-07T03:35:47;12.10;;;10.67;;
2386;SDS011;49473;50.772;8.768;2022-12-07T03:38:18;11.03;;;10.00;;
2386;SDS011;49473;50.772;8.768;2022-12-07T03:40:48;10.73;;;9.67;;
2386;SDS011;49473;50.772;8.768;2022-12-07T03:43:19;11.73;;;10.43;;
2386;SDS011;49473;50.772;8.768;2022-12-07T03:45:50;10.00;;;8.67;;
2386;SDS011;49473;50.772;8.768;2022-12-07T03:48:26;10.00;;;8.70;;
2386;SDS011;49473;50.772;8.768;2022-12-07T03:51:00;9.37;;;8.37;;
2386;SDS011;49473;50.772;8.768;2022-12-07T03:53:33;9.97;;;8.93;;
2386;SDS011;49473;50.772;8.768;2022-12-07T03:56:03;10.50;;;9.40;;
2386;SDS011;49473;50.772;8.768;2022-12-07T03:58:31;9.53;;;8.20;;
2386;SDS011;49473;50.772;8.768;2022-12-07T04:01:00;9.63;;;8.73;;
2386;SDS011;49473;50.772;8.768;2022-12-07T04:03:27;9.77;;;8.70;;
2386;SDS011;49473;50.772;8.768;2022-12-07T04:05:54;8.80;;;7.90;;
2386;SDS011;49473;50.772;8.768;2022-12-07T04:08:21;9.53;;;8.53;;
2386;SDS011;49473;50.772;8.768;2022-12-07T04:10:47;9.13;;;8.23;;
2386;SDS011;49473;50.772;8.768;2022-12-07T04:13:14;8.37;;;7.57;;
2386;SDS011;49473;50.772;8.768;2022-12-07T04:15:41;12.47;;;8.50;;
2386;SDS011;49473;50.772;8.768;2022-12-07T04:18:09;8.77;;;7.73;;
2386;SDS011;49473;50.772;8.768;2022-12-07T04:20:36;9.40;;;7.67;;
2386;SDS011;49473;50.772;8.768;2022-12-07T04:23:03;8.40;;;7.60;;
2386;SDS011;49473;50.772;8.768;2022-12-07T04:25:29;8.47;;;7.67;;
2386;SDS011;49473;50.772;8.768;2022-12-07T04:27:56;8.20;;;7.40;;
2386;SDS011;49473;50.772;8.768;2022-12-07T04:30:23;8.30;;;7.50;;
2386;SDS011;49473;50.772;8.768;2022-12-07T04:32:50;7.60;;;6.90;;
2386;SDS011;49473;50.772;8.768;2022-12-07T04:35:18;8.80;;;7.83;;
2386;SDS011;49473;50.772;8.768;2022-12-07T04:37:44;9.73;;;8.40;;
2386;SDS011;49473;50.772;8.768;2022-12-07T04:40:11;9.20;;;7.27;;
2386;SDS011;49473;50.772;8.768;2022-12-07T04:42:39;8.37;;;7.57;;
2386;SDS011;49473;50.772;8.768;2022-12-07T04:45:06;9.20;;;8.17;;
2386;SDS011;49473;50.772;8.768;2022-12-07T04:47:34;7.93;;;7.17;;
2386;SDS011;49473;50.772;8.768;2022-12-07T04:50:01;10.67;;;9.60;;
2386;SDS011;49473;50.772;8.768;2022-12-07T04:52:29;10.30;;;9.30;;
2386;SDS011;49473;50.772;8.768;2022-12-07T04:54:56;11.63;;;9.57;;
2386;SDS011;49473;50.772;8.768;2022-12-07T04:57:22;10.63;;;9.60;;
2386;SDS011;49473;50.772;8.768;2022-12-07T04:59:49;9.97;;;8.83;;
2386;SDS011;49473;50.772;8.768;2022-12-07T05:02:16;9.70;;;8.70;;
2386;SDS011;49473;50.772;8.768;2022-12-07T05:04:42;10.73;;;9.60;;
2386;SDS011;49473;50.772;8.768;2022-12-07T05:07:09;10.33;;;9.33;;
2386;SDS011;49473;50.772;8.768;2022-12-07T05:09:37;10.70;;;9.60;;
2386;SDS011;49473;50.772;8.768;2022-12-07T05:12:04;9.30;;;8.40;;
2386;SDS011;49473;50.772;8.768;2022-12-07T05:14:31;10.73;;;9.63;;
2386;SDS011;49473;50.772;8.768;2022-12-07T05:16:57;10.80;;;9.70;;
2386;SDS011;49473;50.772;8.768;2022-12-07T05:19:24;10.57;;;9.53;;
2386;SDS011;49473;50.772;8.768;2022-12-07T05:21:51;10.93;;;9.43;;
2386;SDS011;49473;50.772;8.768;2022-12-07T05:24:18;9.57;;;8.67;;
2386;SDS011;49473;50.772;8.768;2022-12-07T05:26:46;10.10;;;9.07;;
2386;SDS011;49473;50.772;8.768;2022-12-07T05:29:13;9.20;;;8.40;;
2386;SDS011;49473;50.772;8.768;2022-12-07T05:31:41;9.90;;;8.67;;
2386;SDS011;49473;50.772;8.768;2022-12-07T05:34:08;11.57;;;10.43;;
2386;SDS011;49473;50.772;8.768;2022-12-07T05:36:36;9.50;;;8.27;;
2386;SDS011;49473;50.772;8.768;2022-12-07T05:39:02;8.83;;;8.03;;
2386;SDS011;49473;50.772;8.768;2022-12-07T05:41:30;9.23;;;8.37;;
2386;SDS011;49473;50.772;8.768;2022-12-07T05:44:16;10.67;;;8.17;;
2386;SDS011;49473;50.772;8.768;2022-12-07T05:46:42;11.07;;;8.47;;
2386;SDS011;49473;50.772;8.768;2022-12-07T05:49:10;8.00;;;7.30;;
2386;SDS011;49473;50.772;8.768;2022-12-07T05:51:37;8.93;;;8.03;;
2386;SDS011;49473;50.772;8.768;2022-12-07T05:54:04;8.63;;;7.73;;
2386;SDS011;49473;50.772;8.768;2022-12-07T05:56:31;8.53;;;7.60;;
2386;SDS011;49473;50.772;8.768;2022-12-07T05:58:57;9.80;;;8.40;;
2386;SDS011;49473;50.772;8.768;2022-12-07T06:01:44;9.93;;;9.03;;
2386;SDS011;49473;50.772;8.768;2022-12-07T06:04:11;9.60;;;8.47;;
2386;SDS011;49473;50.772;8.768;2022-12-07T06:06:37;10.03;;;9.13;;
2386;SDS011;49473;50.772;8.768;2022-12-07T06:09:04;11.53;;;10.30;;
2386;SDS011;49473;50.772;8.768;2022-12-07T06:11:31;13.17;;;11.53;;
2386;SDS011;49473;50.772;8.768;2022-12-07T06:14:16;16.43;;;14.57;;
2386;SDS011;49473;50.772;8.768;2022-12-07T06:16:42;21.10;;;16.13;;
2386;SDS011;49473;50.772;8.768;2022-12-07T06:19:11;14.13;;;11.10;;
2386;SDS011;49473;50.772;8.768;2022-12-07T06:21:37;14.57;;;13.07;;
2386;SDS011;49473;50.772;8.768;2022-12-07T06:24:05;14.00;;;11.30;;
2386;SDS011;49473;50.772;8.768;2022-12-07T06:26:32;12.53;;;11.23;;
2386;SDS011;49473;50.772;8.768;2022-12-07T06:28:58;10.93;;;9.83;;
2386;SDS011;49473;50.772;8.768;2022-12-07T06:31:25;10.90;;;9.83;;
2386;SDS011;49473;50.772;8.768;2022-12-07T06:33:57;10.53;;;9.53;;
2386;SDS011;49473;50.772;8.768;2022-12-07T06:36:24;13.03;;;10.10;;
2386;SDS011;49473;50.772;8.768;2022-12-07T06:38:51;12.10;;;10.83;;
2386;SDS011;49473;50.772;8.768;2022-12-07T06:41:18;13.17;;;11.77;;
2386;SDS011;49473;50.772;8.768;2022-12-07T06:43:45;12.10;;;10.23;;
2386;SDS011;49473;50.772;8.768;2022-12-07T06:46:11;10.30;;;9.20;;
2386;SDS011;49473;50.772;8.768;2022-12-07T06:48:39;12.30;;;11.10;;
2386;SDS011;49473;50.772;8.768;2022-12-07T06:51:09;11.50;;;10.40;;
2386;SDS011;49473;50.772;8.768;2022-12-07T06:53:36;10.67;;;9.57;;
2386;SDS011;49473;50.772;8.768;2022-12-07T06:56:03;12.37;;;10.07;;
2386;SDS011;49473;50.772;8.768;2022-12-07T06:58:31;10.10;;;9.10;;
2386;SDS011;49473;50.772;8.768;2022-12-07T07:00:57;12.90;;;10.30;;
2386;SDS011;49473;50.772;8.768;2022-12-07T07:03:24;12.20;;;10.90;;
2386;SDS011;49473;50.772;8.768;2022-12-07T07:05:51;11.00;;;9.93;;
2386;SDS011;49473;50.772;8.768;2022-12-07T07:08:19;13.40;;;10.63;;
2386;SDS011;49473;50.772;8.768;2022-12-07T07:10:46;11.40;;;9.93;;
2386;SDS011;49473;50.772;8.768;2022-12-07T07:13:12;11.60;;;10.00;;
2386;SDS011;49473;50.772;8.768;2022-12-07T07:15:39;10.90;;;9.07;;
2386;SDS011;49473;50.772;8.768;2022-12-07T07:18:06;14.23;;;10.63;;
2386;SDS011;49473;50.772;8.768;2022-12-07T07:20:33;10.70;;;9.60;;
2386;SDS011;49473;50.772;8.768;2022-12-07T07:22:59;11.77;;;10.10;;
2386;SDS011;49473;50.772;8.768;2022-12-07T07:25:28;10.10;;;8.47;;
2386;SDS011;49473;50.772;8.768;2022-12-07T07:27:54;9.40;;;8.17;;
2386;SDS011;49473;50.772;8.768;2022-12-07T07:30:21;9.47;;;7.97;;
2386;SDS011;49473;50.772;8.768;2022-12-07T07:32:48;7.50;;;6.77;;
2386;SDS011;49473;50.772;8.768;2022-12-07T07:35:15;8.53;;;7.50;;
2386;SDS011;49473;50.772;8.768;2022-12-07T07:37:42;9.17;;;8.00;;
2386;SDS011;49473;50.772;8.768;2022-12-07T07:40:09;8.63;;;7.50;;
2386;SDS011;49473;50.772;8.768;2022-12-07T07:42:37;8.23;;;6.60;;
2386;SDS011;49473;50.772;8.768;2022-12-07T07:45:04;9.77;;;8.77;;
2386;SDS011;49473;50.772;8.768;2022-12-07T07:47:32;13.47;;;10.67;;
2386;SDS011;49473;50.772;8.768;2022-12-07T07:49:59;9.20;;;8.03;;
2386;SDS011;49473;50.772;8.768;2022-12-07T07:52:26;10.10;;;8.27;;
2386;SDS011;49473;50.772;8.768;2022-12-07T07:54:52;10.17;;;7.93;;
2386;SDS011;49473;50.772;8.768;2022-12-07T07:57:19;9.30;;;7.57;;
2386;SDS011;49473;50.772;8.768;2022-12-07T07:59:47;6.63;;;5.93;;
2386;SDS011;49473;50.772;8.768;2022-12-07T08:02:15;8.43;;;6.97;;
2386;SDS011;49473;50.772;8.768;2022-12-07T08:04:42;7.50;;;6.80;;
2386;SDS011;49473;50.772;8.768;2022-12-07T08:07:10;9.30;;;7.50;;
2386;SDS011;49473;50.772;8.768;2022-12-07T08:09:37;10.00;;;8.43;;
2386;SDS011;49473;50.772;8.768;2022-12-07T08:12:04;11.40;;;9.70;;
2386;SDS011;49473;50.772;8.768;2022-12-07T08:14:32;13.90;;;11.97;;
2386;SDS011;49473;50.772;8.768;2022-12-07T08:17:00;12.70;;;11.40;;
2386;SDS011;49473;50.772;8.768;2022-12-07T08:19:27;16.47;;;11.83;;
2386;SDS011;49473;50.772;8.768;2022-12-07T08:21:53;15.73;;;13.63;;
2386;SDS011;49473;50.772;8.768;2022-12-07T08:24:21;16.13;;;13.00;;
2386;SDS011;49473;50.772;8.768;2022-12-07T08:26:47;18.80;;;15.37;;
2386;SDS011;49473;50.772;8.768;2022-12-07T08:29:15;31.43;;;22.57;;
2386;SDS011;49473;50.772;8.768;2022-12-07T08:31:42;24.57;;;18.00;;
2386;SDS011;49473;50.772;8.768;2022-12-07T08:34:11;24.07;;;17.57;;
2386;SDS011;49473;50.772;8.768;2022-12-07T08:36:38;17.43;;;13.90;;
2386;SDS011;49473;50.772;8.768;2022-12-07T08:39:04;15.50;;;13.10;;
2386;SDS011;49473;50.772;8.768;2022-12-07T08:41:31;26.73;;;23.20;;
2386;SDS011;49473;50.772;8.768;2022-12-07T08:43:58;20.07;;;17.90;;
2386;SDS011;49473;50.772;8.768;2022-12-07T08:46:26;11.33;;;10.23;;
2386;SDS011;49473;50.772;8.768;2022-12-07T08:48:58;83.73;;;60.07;;
2386;SDS011;49473;50.772;8.768;2022-12-07T08:51:31;33.43;;;26.23;;
2386;SDS011;49473;50.772;8.768;2022-12-07T08:53:58;22.90;;;19.70;;
2386;SDS011;49473;50.772;8.768;2022-12-07T08:56:27;27.43;;;21.83;;
2386;SDS011;49473;50.772;8.768;2022-12-07T08:58:54;32.30;;;21.77;;
2386;SDS011;49473;50.772;8.768;2022-12-07T09:01:21;14.87;;;13.30;;
2386;SDS011;49473;50.772;8.768;2022-12-07T09:03:47;20.40;;;16.50;;
2386;SDS011;49473;50.772;8.768;2022-12-07T09:06:14;20.50;;;17.03;;
2386;SDS011;49473;50.772;8.768;2022-12-07T09:08:43;17.07;;;12.90;;
2386;SDS011;49473;50.772;8.768;2022-12-07T09:11:13;13.13;;;11.70;;
2386;SDS011;49473;50.772;8.768;2022-12-07T09:13:40;10.50;;;9.13;;
2386;SDS011;49473;50.772;8.768;2022-12-07T09:16:07;14.37;;;12.07;;
2386;SDS011;49473;50.772;8.768;2022-12-07T09:18:33;14.40;;;10.10;;
2386;SDS011;49473;50.772;8.768;2022-12-07T09:21:00;11.93;;;9.60;;
2386;SDS011;49473;50.772;8.768;2022-12-07T09:23:28;12.13;;;10.23;;
2386;SDS011;49473;50.772;8.768;2022-12-07T09:25:58;13.80;;;9.70;;
2386;SDS011;49473;50.772;8.768;2022-12-07T09:28:25;11.80;;;10.60;;
2386;SDS011;49473;50.772;8.768;2022-12-07T09:30:52;12.07;;;9.33;;
2386;SDS011;49473;50.772;8.768;2022-12-07T09:33:19;11.23;;;6.87;;
2386;SDS011;49473;50.772;8.768;2022-12-07T09:35:45;8.40;;;7.33;;
2386;SDS011;49473;50.772;8.768;2022-12-07T09:38:12;13.93;;;8.50;;
2386;SDS011;49473;50.772;8.768;2022-12-07T09:40:40;8.33;;;7.43;;
2386;SDS011;49473;50.772;8.768;2022-12-07T09:43:12;9.43;;;6.77;;
2386;SDS011;49473;50.772;8.768;2022-12-07T09:45:40;10.10;;;7.80;;
2386;SDS011;49473;50.772;8.768;2022-12-07T09:48:09;10.93;;;7.47;;
2386;SDS011;49473;50.772;8.768;2022-12-07T09:50:44;7.57;;;6.67;;
2386;SDS011;49473;50.772;8.768;2022-12-07T09:53:13;8.60;;;7.57;;
2386;SDS011;49473;50.772;8.768;2022-12-07T09:55:45;10.80;;;7.20;;
2386;SDS011;49473;50.772;8.768;2022-12-07T09:58:16;10.03;;;8.00;;
2386;SDS011;49473;50.772;8.768;2022-12-07T10:00:48;8.70;;;6.90;;
2386;SDS011;49473;50.772;8.768;2022-12-07T10:03:16;9.43;;;7.80;;
2386;SDS011;49473;50.772;8.768;2022-12-07T10:05:44;7.10;;;6.37;;
2386;SDS011;49473;50.772;8.768;2022-12-07T10:08:14;10.00;;;7.33;;
2386;SDS011;49473;50.772;8.768;2022-12-07T10:10:43;7.80;;;7.10;;
2386;SDS011;49473;50.772;8.768;2022-12-07T10:13:12;7.93;;;6.90;;
2386;SDS011;49473;50.772;8.768;2022-12-07T10:15:45;7.53;;;6.60;;
2386;SDS011;49473;50.772;8.768;2022-12-07T10:18:19;8.50;;;7.60;;
2386;SDS011;49473;50.772;8.768;2022-12-07T10:21:00;6.87;;;6.23;;
2386;SDS011;49473;50.772;8.768;2022-12-07T10:23:29;6.60;;;6.00;;
2386;SDS011;49473;50.772;8.768;2022-12-07T10:25:56;6.27;;;5.70;;
2386;SDS011;49473;50.772;8.768;2022-12-07T10:28:23;8.47;;;6.13;;
2386;SDS011;49473;50.772;8.768;2022-12-07T10:31:01;10.50;;;5.67;;
2386;SDS011;49473;50.772;8.768;2022-12-07T10:33:31;7.60;;;5.20;;
2386;SDS011;49473;50.772;8.768;2022-12-07T10:36:00;8.50;;;5.17;;
2386;SDS011;49473;50.772;8.768;2022-12-07T10:38:43;7.10;;;5.00;;
2386;SDS011;49473;50.772;8.768;2022-12-07T10:41:12;7.03;;;6.00;;
2386;SDS011;49473;50.772;8.768;2022-12-07T10:43:46;4.60;;;4.20;;
2386;SDS011;49473;50.772;8.768;2022-12-07T10:49:25;4.43;;;4.03;;
2386;SDS011;49473;50.772;8.768;2022-12-07T10:52:06;3.53;;;3.20;;
2386;SDS011;49473;50.772;8.768;2022-12-07T10:54:39;4.40;;;4.00;;
2386;SDS011;49473;50.772;8.768;2022-12-07T11:00:18;3.60;;;3.30;;
2386;SDS011;49473;50.772;8.768;2022-12-07T11:05:41;3.53;;;3.10;;
2386;SDS011;49473;50.772;8.768;2022-12-07T11:08:18;3.50;;;3.13;;
2386;SDS011;49473;50.772;8.768;2022-12-07T11:10:56;4.17;;;2.90;;
2386;SDS011;49473;50.772;8.768;2022-12-07T11:13:28;3.47;;;3.17;;
2386;SDS011;49473;50.772;8.768;2022-12-07T11:16:03;4.10;;;3.10;;
2386;SDS011;49473;50.772;8.768;2022-12-07T11:18:43;5.13;;;3.17;;
2386;SDS011;49473;50.772;8.768;2022-12-07T11:21:20;3.50;;;3.20;;
2386;SDS011;49473;50.772;8.768;2022-12-07T11:23:54;2.97;;;2.70;;
2386;SDS011;49473;50.772;8.768;2022-12-07T11:26:33;5.90;;;2.70;;
2386;SDS011;49473;50.772;8.768;2022-12-07T11:29:15;4.73;;;3.00;;
2386;SDS011;49473;50.772;8.768;2022-12-07T11:32:02;6.87;;;3.03;;
2386;SDS011;49473;50.772;8.768;2022-12-07T11:34:37;5.27;;;3.10;;
2386;SDS011;49473;50.772;8.768;2022-12-07T11:37:12;6.50;;;3.40;;
2386;SDS011;49473;50.772;8.768;2022-12-07T11:39:44;3.57;;;3.10;;
2386;SDS011;49473;50.772;8.768;2022-12-07T11:42:19;4.83;;;4.43;;
2386;SDS011;49473;50.772;8.768;2022-12-07T11:44:50;5.00;;;3.97;;
2386;SDS011;49473;50.772;8.768;2022-12-07T11:47:21;3.93;;;3.33;;
2386;SDS011;49473;50.772;8.768;2022-12-07T11:49:53;4.77;;;3.83;;
2386;SDS011;49473;50.772;8.768;2022-12-07T11:52:27;3.73;;;3.43;;
2386;SDS011;49473;50.772;8.768;2022-12-07T11:55:02;5.07;;;3.10;;
2386;SDS011;49473;50.772;8.768;2022-12-07T11:57:42;3.90;;;2.33;;
2386;SDS011;49473;50.772;8.768;2022-12-07T12:00:13;3.50;;;2.57;;
2386;SDS011;49473;50.772;8.768;2022-12-07T12:02:43;2.30;;;2.10;;
2386;SDS011;49473;50.772;8.768;2022-12-07T12:05:18;2.90;;;2.50;;
2386;SDS011;49473;50.772;8.768;2022-12-07T12:07:50;3.37;;;2.43;;
2386;SDS011;49473;50.772;8.768;2022-12-07T12:10:27;2.60;;;2.00;;
2386;SDS011;49473;50.772;8.768;2022-12-07T12:13:19;2.43;;;2.23;;
2386;SDS011;49473;50.772;8.768;2022-12-07T12:15:59;2.67;;;2.47;;
2386;SDS011;49473;50.772;8.768;2022-12-07T12:21:35;2.50;;;1.73;;
2386;SDS011;49473;50.772;8.768;2022-12-07T12:24:04;2.00;;;1.60;;
2386;SDS011;49473;50.772;8.768;2022-12-07T12:26:37;4.10;;;3.07;;
2386;SDS011;49473;50.772;8.768;2022-12-07T12:29:06;3.07;;;2.80;;
2386;SDS011;49473;50.772;8.768;2022-12-07T12:31:48;3.20;;;2.50;;
2386;SDS011;49473;50.772;8.768;2022-12-07T12:34:37;3.30;;;2.60;;
2386;SDS011;49473;50.772;8.768;2022-12-07T12:37:14;2.60;;;2.40;;
2386;SDS011;49473;50.772;8.768;2022-12-07T12:55:20;4.63;;;2.63;;
2386;SDS011;49473;50.772;8.768;2022-12-07T13:04:02;6.27;;;2.93;;
2386;SDS011;49473;50.772;8.768;2022-12-07T13:06:40;3.37;;;2.63;;
2386;SDS011;49473;50.772;8.768;2022-12-07T13:09:15;2.87;;;2.57;;
2386;SDS011;49473;50.772;8.768;2022-12-07T13:11:47;3.70;;;3.10;;
2386;SDS011;49473;50.772;8.768;2022-12-07T13:23:17;3.83;;;3.00;;
2386;SDS011;49473;50.772;8.768;2022-12-07T13:28:41;3.93;;;2.83;;
2386;SDS011;49473;50.772;8.768;2022-12-07T13:31:14;2.97;;;2.70;;
2386;SDS011;49473;50.772;8.768;2022-12-07T13:34:04;5.63;;;3.33;;
2386;SDS011;49473;50.772;8.768;2022-12-07T13:36:51;4.40;;;2.93;;
2386;SDS011;49473;50.772;8.768;2022-12-07T13:39:19;5.80;;;2.90;;
2386;SDS011;49473;50.772;8.768;2022-12-07T13:41:49;5.27;;;2.83;;
2386;SDS011;49473;50.772;8.768;2022-12-07T13:44:17;5.93;;;3.10;;
2386;SDS011;49473;50.772;8.768;2022-12-07T13:46:47;3.67;;;3.27;;
2386;SDS011;49473;50.772;8.768;2022-12-07T13:49:23;3.90;;;3.50;;
2386;SDS011;49473;50.772;8.768;2022-12-07T13:51:52;3.27;;;2.60;;
2386;SDS011;49473;50.772;8.768;2022-12-07T13:54:20;4.43;;;3.20;;
2386;SDS011;49473;50.772;8.768;2022-12-07T13:56:49;5.47;;;3.20;;
2386;SDS011;49473;50.772;8.768;2022-12-07T13:59:17;3.03;;;2.33;;
2386;SDS011;49473;50.772;8.768;2022-12-07T14:01:47;5.10;;;3.20;;
2386;SDS011;49473;50.772;8.768;2022-12-07T14:09:55;5.57;;;3.60;;
2386;SDS011;49473;50.772;8.768;2022-12-07T14:12:24;5.57;;;3.70;;
2386;SDS011;49473;50.772;8.768;2022-12-07T14:14:52;6.13;;;5.53;;
2386;SDS011;49473;50.772;8.768;2022-12-07T14:17:20;16.57;;;13.90;;
2386;SDS011;49473;50.772;8.768;2022-12-07T14:19:50;8.83;;;5.70;;
2386;SDS011;49473;50.772;8.768;2022-12-07T14:22:24;3.20;;;2.90;;
2386;SDS011;49473;50.772;8.768;2022-12-07T14:27:53;3.20;;;2.00;;
2386;SDS011;49473;50.772;8.768;2022-12-07T14:30:23;2.27;;;2.10;;
2386;SDS011;49473;50.772;8.768;2022-12-07T14:32:52;2.90;;;1.90;;
2386;SDS011;49473;50.772;8.768;2022-12-07T14:35:22;2.23;;;2.03;;
2386;SDS011;49473;50.772;8.768;2022-12-07T14:37:49;4.83;;;2.40;;
2386;SDS011;49473;50.772;8.768;2022-12-07T14:40:17;5.50;;;2.43;;
2386;SDS011;49473;50.772;8.768;2022-12-07T14:42:45;2.23;;;2.03;;
2386;SDS011;49473;50.772;8.768;2022-12-07T14:45:15;2.90;;;2.20;;
2386;SDS011;49473;50.772;8.768;2022-12-07T14:47:44;4.37;;;2.53;;
2386;SDS011;49473;50.772;8.768;2022-12-07T14:50:12;3.40;;;2.63;;
2386;SDS011;49473;50.772;8.768;2022-12-07T14:52:41;7.83;;;2.60;;
2386;SDS011;49473;50.772;8.768;2022-12-07T14:55:13;4.60;;;2.30;;
2386;SDS011;49473;50.772;8.768;2022-12-07T14:57:42;6.27;;;3.37;;
2386;SDS011;49473;50.772;8.768;2022-12-07T15:00:13;5.20;;;2.50;;
2386;SDS011;49473;50.772;8.768;2022-12-07T15:02:42;3.80;;;3.37;;
2386;SDS011;49473;50.772;8.768;2022-12-07T15:05:09;5.10;;;3.87;;
2386;SDS011;49473;50.772;8.768;2022-12-07T15:07:36;5.80;;;3.70;;
2386;SDS011;49473;50.772;8.768;2022-12-07T15:10:05;5.40;;;3.60;;
2386;SDS011;49473;50.772;8.768;2022-12-07T15:12:39;3.00;;;2.73;;
2386;SDS011;49473;50.772;8.768;2022-12-07T15:15:05;6.43;;;2.93;;
2386;SDS011;49473;50.772;8.768;2022-12-07T15:17:33;3.90;;;2.97;;
2386;SDS011;49473;50.772;8.768;2022-12-07T15:20:00;6.20;;;5.53;;
2386;SDS011;49473;50.772;8.768;2022-12-07T15:22:27;6.47;;;4.30;;
2386;SDS011;49473;50.772;8.768;2022-12-07T15:24:54;4.90;;;3.70;;
2386;SDS011;49473;50.772;8.768;2022-12-07T15:27:22;5.20;;;3.20;;
2386;SDS011;49473;50.772;8.768;2022-12-07T15:29:49;5.20;;;3.90;;
2386;SDS011;49473;50.772;8.768;2022-12-07T15:32:16;6.03;;;4.00;;
2386;SDS011;49473;50.772;8.768;2022-12-07T15:34:43;3.93;;;3.30;;
2386;SDS011;49473;50.772;8.768;2022-12-07T15:37:09;14.10;;;5.53;;
2386;SDS011;49473;50.772;8.768;2022-12-07T15:39:36;5.60;;;4.20;;
2386;SDS011;49473;50.772;8.768;2022-12-07T15:42:03;5.73;;;5.13;;
2386;SDS011;49473;50.772;8.768;2022-12-07T15:44:31;6.40;;;4.20;;
2386;SDS011;49473;50.772;8.768;2022-12-07T15:47:16;4.27;;;3.97;;
2386;SDS011;49473;50.772;8.768;2022-12-07T15:49:43;7.00;;;3.50;;
2386;SDS011;49473;50.772;8.768;2022-12-07T15:52:09;5.10;;;3.57;;
2386;SDS011;49473;50.772;8.768;2022-12-07T15:54:36;5.83;;;2.93;;
2386;SDS011;49473;50.772;8.768;2022-12-07T15:57:03;4.33;;;3.53;;
2386;SDS011;49473;50.772;8.768;2022-12-07T15:59:31;4.00;;;3.60;;
2386;SDS011;49473;50.772;8.768;2022-12-07T16:01:58;4.47;;;3.83;;